sensor_id;sensor_type;location;lat;lon;timestamp;P1;durP1;ratioP1;P2;durP2;ratioP2
30998;SDS011;20549;50.042;8.968;2022-08-03T00:00:16;1.92;;;1.82;;
30998;SDS011;20549;50.042;8.968;2022-08-03T00:02:43;1.60;;;1.50;;
30998;SDS011;20549;50.042;8.968;2022-08-03T00:05:09;2.65;;;2.20;;
30998;SDS011;20549;50.042;8.968;2022-08-03T00:07:36;1.52;;;1.42;;
30998;SDS011;20549;50.042;8.968;2022-08-03T00:10:02;1.70;;;1.60;;
30998;SDS011;20549;50.042;8.968;2022-08-03T00:12:29;1.65;;;1.55;;
30998;SDS011;20549;50.042;8.968;2022-08-03T00:14:56;1.77;;;1.67;;
30998;SDS011;20549;50.042;8.968;2022-08-03T00:17:22;2.30;;;2.15;;
30998;SDS011;20549;50.042;8.968;2022-08-03T00:19:49;1.92;;;1.82;;
30998;SDS011;20549;50.042;8.968;2022-08-03T00:22:15;2.75;;;2.02;;
30998;SDS011;20549;50.042;8.968;2022-08-03T00:24:42;1.80;;;1.70;;
30998;SDS011;20549;50.042;8.968;2022-08-03T00:27:09;3.02;;;2.05;;
30998;SDS011;20549;50.042;8.968;2022-08-03T00:29:35;1.60;;;1.42;;
30998;SDS011;20549;50.042;8.968;2022-08-03T00:32:02;1.80;;;1.70;;
30998;SDS011;20549;50.042;8.968;2022-08-03T00:34:28;2.00;;;1.80;;
30998;SDS011;20549;50.042;8.968;2022-08-03T00:36:55;1.82;;;1.72;;
30998;SDS011;20549;50.042;8.968;2022-08-03T00:39:21;2.08;;;1.87;;
30998;SDS011;20549;50.042;8.968;2022-08-03T00:41:48;1.80;;;1.70;;
30998;SDS011;20549;50.042;8.968;2022-08-03T00:44:15;2.02;;;1.92;;
30998;SDS011;20549;50.042;8.968;2022-08-03T00:46:41;2.00;;;1.90;;
30998;SDS011;20549;50.042;8.968;2022-08-03T00:49:08;3.60;;;1.90;;
30998;SDS011;20549;50.042;8.968;2022-08-03T00:51:34;2.10;;;1.90;;
30998;SDS011;20549;50.042;8.968;2022-08-03T00:54:01;2.20;;;1.70;;
30998;SDS011;20549;50.042;8.968;2022-08-03T00:56:28;2.05;;;1.95;;
30998;SDS011;20549;50.042;8.968;2022-08-03T00:58:54;1.72;;;1.62;;
30998;SDS011;20549;50.042;8.968;2022-08-03T01:01:21;1.95;;;1.80;;
30998;SDS011;20549;50.042;8.968;2022-08-03T01:03:47;1.77;;;1.67;;
30998;SDS011;20549;50.042;8.968;2022-08-03T01:06:24;2.05;;;1.95;;
30998;SDS011;20549;50.042;8.968;2022-08-03T01:08:51;1.70;;;1.60;;
30998;SDS011;20549;50.042;8.968;2022-08-03T01:11:39;2.42;;;2.02;;
30998;SDS011;20549;50.042;8.968;2022-08-03T01:16:53;1.95;;;1.72;;
30998;SDS011;20549;50.042;8.968;2022-08-03T01:27:56;1.95;;;1.85;;
30998;SDS011;20549;50.042;8.968;2022-08-03T01:30:23;1.87;;;1.77;;
30998;SDS011;20549;50.042;8.968;2022-08-03T01:32:57;2.12;;;1.85;;
30998;SDS011;20549;50.042;8.968;2022-08-03T01:38:08;1.98;;;1.87;;
30998;SDS011;20549;50.042;8.968;2022-08-03T01:40:29;2.60;;;1.95;;
30998;SDS011;20549;50.042;8.968;2022-08-03T01:42:56;2.37;;;1.70;;
30998;SDS011;20549;50.042;8.968;2022-08-03T01:45:22;2.80;;;1.87;;
30998;SDS011;20549;50.042;8.968;2022-08-03T01:47:49;1.80;;;1.70;;
30998;SDS011;20549;50.042;8.968;2022-08-03T01:50:18;1.80;;;1.70;;
30998;SDS011;20549;50.042;8.968;2022-08-03T01:52:43;2.08;;;1.90;;
30998;SDS011;20549;50.042;8.968;2022-08-03T01:55:09;2.15;;;2.02;;
30998;SDS011;20549;50.042;8.968;2022-08-03T01:57:35;5.15;;;2.10;;
30998;SDS011;20549;50.042;8.968;2022-08-03T02:00:02;2.15;;;1.95;;
30998;SDS011;20549;50.042;8.968;2022-08-03T02:02:28;1.77;;;1.67;;
30998;SDS011;20549;50.042;8.968;2022-08-03T02:04:55;1.95;;;1.85;;
30998;SDS011;20549;50.042;8.968;2022-08-03T02:07:22;3.02;;;2.02;;
30998;SDS011;20549;50.042;8.968;2022-08-03T02:09:49;2.33;;;2.12;;
30998;SDS011;20549;50.042;8.968;2022-08-03T02:12:15;2.00;;;1.90;;
30998;SDS011;20549;50.042;8.968;2022-08-03T02:14:42;1.60;;;1.50;;
30998;SDS011;20549;50.042;8.968;2022-08-03T02:17:08;2.00;;;1.90;;
30998;SDS011;20549;50.042;8.968;2022-08-03T02:19:35;3.67;;;1.92;;
30998;SDS011;20549;50.042;8.968;2022-08-03T02:22:02;3.75;;;1.60;;
30998;SDS011;20549;50.042;8.968;2022-08-03T02:24:28;2.00;;;1.90;;
30998;SDS011;20549;50.042;8.968;2022-08-03T02:26:55;2.00;;;1.90;;
30998;SDS011;20549;50.042;8.968;2022-08-03T02:29:23;1.90;;;1.80;;
30998;SDS011;20549;50.042;8.968;2022-08-03T02:31:48;2.20;;;2.00;;
30998;SDS011;20549;50.042;8.968;2022-08-03T02:34:15;2.10;;;1.95;;
30998;SDS011;20549;50.042;8.968;2022-08-03T02:36:41;2.55;;;2.35;;
30998;SDS011;20549;50.042;8.968;2022-08-03T02:39:08;2.12;;;2.02;;
30998;SDS011;20549;50.042;8.968;2022-08-03T02:41:40;1.85;;;1.75;;
30998;SDS011;20549;50.042;8.968;2022-08-03T02:44:06;2.20;;;2.00;;
30998;SDS011;20549;50.042;8.968;2022-08-03T02:46:32;2.00;;;1.90;;
30998;SDS011;20549;50.042;8.968;2022-08-03T02:48:58;2.02;;;1.87;;
30998;SDS011;20549;50.042;8.968;2022-08-03T02:51:23;2.67;;;2.05;;
30998;SDS011;20549;50.042;8.968;2022-08-03T02:53:50;2.62;;;2.10;;
30998;SDS011;20549;50.042;8.968;2022-08-03T02:56:16;2.62;;;2.20;;
30998;SDS011;20549;50.042;8.968;2022-08-03T02:58:43;2.20;;;2.05;;
30998;SDS011;20549;50.042;8.968;2022-08-03T03:01:10;2.33;;;2.12;;
30998;SDS011;20549;50.042;8.968;2022-08-03T03:03:36;2.50;;;2.30;;
30998;SDS011;20549;50.042;8.968;2022-08-03T03:06:03;2.77;;;2.10;;
30998;SDS011;20549;50.042;8.968;2022-08-03T03:08:29;2.00;;;1.90;;
30998;SDS011;20549;50.042;8.968;2022-08-03T03:10:57;2.27;;;2.08;;
30998;SDS011;20549;50.042;8.968;2022-08-03T03:13:23;2.10;;;2.00;;
30998;SDS011;20549;50.042;8.968;2022-08-03T03:15:49;2.42;;;2.20;;
30998;SDS011;20549;50.042;8.968;2022-08-03T03:18:16;1.95;;;1.85;;
30998;SDS011;20549;50.042;8.968;2022-08-03T03:20:42;3.35;;;2.00;;
30998;SDS011;20549;50.042;8.968;2022-08-03T03:23:09;2.42;;;2.22;;
30998;SDS011;20549;50.042;8.968;2022-08-03T03:25:36;2.08;;;1.98;;
30998;SDS011;20549;50.042;8.968;2022-08-03T03:28:02;2.22;;;2.02;;
30998;SDS011;20549;50.042;8.968;2022-08-03T03:30:29;2.47;;;2.27;;
30998;SDS011;20549;50.042;8.968;2022-08-03T03:32:56;2.60;;;2.40;;
30998;SDS011;20549;50.042;8.968;2022-08-03T03:35:22;2.35;;;2.15;;
30998;SDS011;20549;50.042;8.968;2022-08-03T03:37:48;2.65;;;2.42;;
30998;SDS011;20549;50.042;8.968;2022-08-03T03:40:15;3.72;;;3.42;;
30998;SDS011;20549;50.042;8.968;2022-08-03T03:42:42;3.00;;;2.80;;
30998;SDS011;20549;50.042;8.968;2022-08-03T03:45:08;3.75;;;3.22;;
30998;SDS011;20549;50.042;8.968;2022-08-03T03:47:35;4.00;;;3.60;;
30998;SDS011;20549;50.042;8.968;2022-08-03T03:50:05;3.72;;;3.42;;
30998;SDS011;20549;50.042;8.968;2022-08-03T03:52:31;4.70;;;3.60;;
30998;SDS011;20549;50.042;8.968;2022-08-03T03:54:57;3.75;;;3.33;;
30998;SDS011;20549;50.042;8.968;2022-08-03T03:57:24;4.12;;;3.22;;
30998;SDS011;20549;50.042;8.968;2022-08-03T03:59:51;3.98;;;3.58;;
30998;SDS011;20549;50.042;8.968;2022-08-03T04:02:17;3.87;;;3.50;;
30998;SDS011;20549;50.042;8.968;2022-08-03T04:04:44;3.50;;;3.20;;
30998;SDS011;20549;50.042;8.968;2022-08-03T04:07:30;3.20;;;2.90;;
30998;SDS011;20549;50.042;8.968;2022-08-03T04:10:22;2.90;;;2.70;;
30998;SDS011;20549;50.042;8.968;2022-08-03T04:13:08;3.05;;;2.67;;
30998;SDS011;20549;50.042;8.968;2022-08-03T04:15:31;3.75;;;3.33;;
30998;SDS011;20549;50.042;8.968;2022-08-03T04:17:58;3.30;;;3.00;;
30998;SDS011;20549;50.042;8.968;2022-08-03T04:20:28;3.67;;;3.00;;
30998;SDS011;20549;50.042;8.968;2022-08-03T04:22:54;4.72;;;2.77;;
30998;SDS011;20549;50.042;8.968;2022-08-03T04:25:20;3.87;;;2.70;;
30998;SDS011;20549;50.042;8.968;2022-08-03T04:27:47;4.12;;;2.72;;
30998;SDS011;20549;50.042;8.968;2022-08-03T04:30:13;2.67;;;2.47;;
30998;SDS011;20549;50.042;8.968;2022-08-03T04:32:40;2.52;;;2.33;;
30998;SDS011;20549;50.042;8.968;2022-08-03T04:35:07;2.83;;;2.47;;
30998;SDS011;20549;50.042;8.968;2022-08-03T04:37:45;3.70;;;2.90;;
30998;SDS011;20549;50.042;8.968;2022-08-03T04:40:17;2.35;;;2.15;;
30998;SDS011;20549;50.042;8.968;2022-08-03T04:42:44;2.67;;;2.47;;
30998;SDS011;20549;50.042;8.968;2022-08-03T04:45:10;3.40;;;2.40;;
30998;SDS011;20549;50.042;8.968;2022-08-03T04:47:37;2.80;;;2.60;;
30998;SDS011;20549;50.042;8.968;2022-08-03T04:50:04;2.70;;;2.50;;
30998;SDS011;20549;50.042;8.968;2022-08-03T04:52:30;2.80;;;2.60;;
30998;SDS011;20549;50.042;8.968;2022-08-03T04:54:57;2.60;;;2.50;;
30998;SDS011;20549;50.042;8.968;2022-08-03T04:57:23;3.35;;;2.65;;
30998;SDS011;20549;50.042;8.968;2022-08-03T04:59:51;2.52;;;2.33;;
30998;SDS011;20549;50.042;8.968;2022-08-03T05:02:17;2.60;;;2.40;;
30998;SDS011;20549;50.042;8.968;2022-08-03T05:04:43;3.17;;;2.50;;
30998;SDS011;20549;50.042;8.968;2022-08-03T05:07:10;2.58;;;2.37;;
30998;SDS011;20549;50.042;8.968;2022-08-03T05:09:36;2.80;;;2.40;;
30998;SDS011;20549;50.042;8.968;2022-08-03T05:12:03;2.37;;;2.15;;
30998;SDS011;20549;50.042;8.968;2022-08-03T05:14:29;4.40;;;1.92;;
30998;SDS011;20549;50.042;8.968;2022-08-03T05:16:56;2.58;;;2.37;;
30998;SDS011;20549;50.042;8.968;2022-08-03T05:19:22;2.87;;;2.00;;
30998;SDS011;20549;50.042;8.968;2022-08-03T05:21:49;3.72;;;2.00;;
30998;SDS011;20549;50.042;8.968;2022-08-03T05:24:16;3.35;;;2.00;;
30998;SDS011;20549;50.042;8.968;2022-08-03T05:26:42;2.58;;;2.00;;
30998;SDS011;20549;50.042;8.968;2022-08-03T05:29:09;2.35;;;2.10;;
30998;SDS011;20549;50.042;8.968;2022-08-03T05:31:35;1.80;;;1.70;;
30998;SDS011;20549;50.042;8.968;2022-08-03T05:34:02;2.20;;;2.05;;
30998;SDS011;20549;50.042;8.968;2022-08-03T05:36:29;2.02;;;1.90;;
30998;SDS011;20549;50.042;8.968;2022-08-03T05:38:55;2.15;;;1.90;;
30998;SDS011;20549;50.042;8.968;2022-08-03T05:41:22;2.45;;;2.05;;
30998;SDS011;20549;50.042;8.968;2022-08-03T05:43:49;2.02;;;1.80;;
30998;SDS011;20549;50.042;8.968;2022-08-03T05:46:15;2.95;;;1.72;;
30998;SDS011;20549;50.042;8.968;2022-08-03T05:48:42;1.85;;;1.60;;
30998;SDS011;20549;50.042;8.968;2022-08-03T05:51:08;1.87;;;1.70;;
30998;SDS011;20549;50.042;8.968;2022-08-03T05:53:35;2.60;;;2.12;;
30998;SDS011;20549;50.042;8.968;2022-08-03T05:56:02;1.77;;;1.67;;
30998;SDS011;20549;50.042;8.968;2022-08-03T05:58:28;2.65;;;1.80;;
30998;SDS011;20549;50.042;8.968;2022-08-03T06:00:55;4.00;;;1.77;;
30998;SDS011;20549;50.042;8.968;2022-08-03T06:03:21;1.90;;;1.70;;
30998;SDS011;20549;50.042;8.968;2022-08-03T06:05:48;1.55;;;1.45;;
30998;SDS011;20549;50.042;8.968;2022-08-03T06:08:14;1.60;;;1.50;;
30998;SDS011;20549;50.042;8.968;2022-08-03T06:10:41;1.57;;;1.32;;
30998;SDS011;20549;50.042;8.968;2022-08-03T06:13:07;1.70;;;1.60;;
30998;SDS011;20549;50.042;8.968;2022-08-03T06:15:34;1.92;;;1.27;;
30998;SDS011;20549;50.042;8.968;2022-08-03T06:18:01;1.60;;;1.50;;
30998;SDS011;20549;50.042;8.968;2022-08-03T06:20:27;2.25;;;1.80;;
30998;SDS011;20549;50.042;8.968;2022-08-03T06:22:54;2.42;;;1.60;;
30998;SDS011;20549;50.042;8.968;2022-08-03T06:25:20;2.15;;;1.70;;
30998;SDS011;20549;50.042;8.968;2022-08-03T06:27:47;2.05;;;1.60;;
30998;SDS011;20549;50.042;8.968;2022-08-03T06:30:14;3.90;;;1.67;;
30998;SDS011;20549;50.042;8.968;2022-08-03T06:32:40;1.65;;;1.55;;
30998;SDS011;20549;50.042;8.968;2022-08-03T06:35:07;1.47;;;1.37;;
30998;SDS011;20549;50.042;8.968;2022-08-03T06:37:43;1.70;;;1.60;;
30998;SDS011;20549;50.042;8.968;2022-08-03T06:40:12;2.27;;;2.08;;
30998;SDS011;20549;50.042;8.968;2022-08-03T06:42:38;2.62;;;1.98;;
30998;SDS011;20549;50.042;8.968;2022-08-03T06:45:05;2.25;;;1.90;;
30998;SDS011;20549;50.042;8.968;2022-08-03T06:47:32;1.50;;;1.40;;
30998;SDS011;20549;50.042;8.968;2022-08-03T06:49:58;2.85;;;1.30;;
30998;SDS011;20549;50.042;8.968;2022-08-03T06:52:25;1.98;;;1.30;;
30998;SDS011;20549;50.042;8.968;2022-08-03T06:54:51;1.50;;;1.40;;
30998;SDS011;20549;50.042;8.968;2022-08-03T06:57:18;1.65;;;1.55;;
30998;SDS011;20549;50.042;8.968;2022-08-03T06:59:45;1.57;;;1.40;;
30998;SDS011;20549;50.042;8.968;2022-08-03T07:02:11;1.50;;;1.40;;
30998;SDS011;20549;50.042;8.968;2022-08-03T07:04:38;1.40;;;1.30;;
30998;SDS011;20549;50.042;8.968;2022-08-03T07:07:04;1.37;;;1.25;;
30998;SDS011;20549;50.042;8.968;2022-08-03T07:09:31;1.50;;;1.40;;
30998;SDS011;20549;50.042;8.968;2022-08-03T07:11:57;1.67;;;1.37;;
30998;SDS011;20549;50.042;8.968;2022-08-03T07:14:24;1.50;;;1.40;;
30998;SDS011;20549;50.042;8.968;2022-08-03T07:16:51;1.30;;;1.20;;
30998;SDS011;20549;50.042;8.968;2022-08-03T07:19:17;1.98;;;1.22;;
30998;SDS011;20549;50.042;8.968;2022-08-03T07:21:44;2.30;;;1.20;;
30998;SDS011;20549;50.042;8.968;2022-08-03T07:24:10;1.32;;;1.10;;
30998;SDS011;20549;50.042;8.968;2022-08-03T07:26:37;1.25;;;1.15;;
30998;SDS011;20549;50.042;8.968;2022-08-03T07:29:04;1.22;;;1.12;;
30998;SDS011;20549;50.042;8.968;2022-08-03T07:31:30;0.93;;;0.90;;
30998;SDS011;20549;50.042;8.968;2022-08-03T07:33:57;1.00;;;1.00;;
30998;SDS011;20549;50.042;8.968;2022-08-03T07:36:23;2.30;;;1.15;;
30998;SDS011;20549;50.042;8.968;2022-08-03T07:38:50;1.25;;;1.05;;
30998;SDS011;20549;50.042;8.968;2022-08-03T07:41:17;6.60;;;1.12;;
30998;SDS011;20549;50.042;8.968;2022-08-03T07:43:43;1.67;;;1.25;;
30998;SDS011;20549;50.042;8.968;2022-08-03T07:46:10;1.87;;;1.30;;
30998;SDS011;20549;50.042;8.968;2022-08-03T07:48:36;4.30;;;1.10;;
30998;SDS011;20549;50.042;8.968;2022-08-03T07:51:03;1.27;;;0.78;;
30998;SDS011;20549;50.042;8.968;2022-08-03T07:53:30;1.30;;;0.88;;
30998;SDS011;20549;50.042;8.968;2022-08-03T07:55:56;2.27;;;1.10;;
30998;SDS011;20549;50.042;8.968;2022-08-03T07:58:23;0.90;;;0.90;;
30998;SDS011;20549;50.042;8.968;2022-08-03T08:00:49;1.27;;;0.95;;
30998;SDS011;20549;50.042;8.968;2022-08-03T08:03:16;1.00;;;0.90;;
30998;SDS011;20549;50.042;8.968;2022-08-03T08:05:42;0.95;;;0.90;;
30998;SDS011;20549;50.042;8.968;2022-08-03T08:08:09;0.82;;;0.82;;
30998;SDS011;20549;50.042;8.968;2022-08-03T08:10:36;2.02;;;1.02;;
30998;SDS011;20549;50.042;8.968;2022-08-03T08:13:03;0.95;;;0.95;;
30998;SDS011;20549;50.042;8.968;2022-08-03T08:15:29;5.47;;;1.10;;
30998;SDS011;20549;50.042;8.968;2022-08-03T08:17:56;1.17;;;0.93;;
30998;SDS011;20549;50.042;8.968;2022-08-03T08:20:23;0.80;;;0.80;;
30998;SDS011;20549;50.042;8.968;2022-08-03T08:22:49;0.98;;;0.98;;
30998;SDS011;20549;50.042;8.968;2022-08-03T08:25:15;0.90;;;0.90;;
30998;SDS011;20549;50.042;8.968;2022-08-03T08:27:46;1.07;;;0.70;;
30998;SDS011;20549;50.042;8.968;2022-08-03T08:30:12;0.57;;;0.57;;
30998;SDS011;20549;50.042;8.968;2022-08-03T08:32:38;0.80;;;0.80;;
30998;SDS011;20549;50.042;8.968;2022-08-03T08:35:05;1.10;;;1.10;;
30998;SDS011;20549;50.042;8.968;2022-08-03T08:37:31;1.55;;;1.05;;
30998;SDS011;20549;50.042;8.968;2022-08-03T08:39:58;0.80;;;0.80;;
30998;SDS011;20549;50.042;8.968;2022-08-03T08:42:25;1.92;;;0.90;;
30998;SDS011;20549;50.042;8.968;2022-08-03T08:44:51;2.85;;;0.88;;
30998;SDS011;20549;50.042;8.968;2022-08-03T08:47:18;0.68;;;0.68;;
30998;SDS011;20549;50.042;8.968;2022-08-03T08:49:45;0.57;;;0.57;;
30998;SDS011;20549;50.042;8.968;2022-08-03T08:52:11;0.78;;;0.78;;
30998;SDS011;20549;50.042;8.968;2022-08-03T08:54:38;1.17;;;1.10;;
30998;SDS011;20549;50.042;8.968;2022-08-03T08:57:04;1.15;;;1.05;;
30998;SDS011;20549;50.042;8.968;2022-08-03T08:59:31;0.65;;;0.65;;
30998;SDS011;20549;50.042;8.968;2022-08-03T09:01:57;0.82;;;0.80;;
30998;SDS011;20549;50.042;8.968;2022-08-03T09:04:24;1.92;;;1.10;;
30998;SDS011;20549;50.042;8.968;2022-08-03T09:06:51;0.70;;;0.70;;
30998;SDS011;20549;50.042;8.968;2022-08-03T09:09:17;0.62;;;0.62;;
30998;SDS011;20549;50.042;8.968;2022-08-03T09:11:44;1.52;;;0.75;;
30998;SDS011;20549;50.042;8.968;2022-08-03T09:14:10;0.82;;;0.70;;
30998;SDS011;20549;50.042;8.968;2022-08-03T09:16:37;0.62;;;0.60;;
30998;SDS011;20549;50.042;8.968;2022-08-03T09:19:10;0.72;;;0.72;;
30998;SDS011;20549;50.042;8.968;2022-08-03T09:21:36;0.75;;;0.70;;
30998;SDS011;20549;50.042;8.968;2022-08-03T09:24:03;0.50;;;0.50;;
30998;SDS011;20549;50.042;8.968;2022-08-03T09:26:30;1.12;;;0.68;;
30998;SDS011;20549;50.042;8.968;2022-08-03T09:28:57;0.47;;;0.47;;
30998;SDS011;20549;50.042;8.968;2022-08-03T09:31:29;0.80;;;0.80;;
30998;SDS011;20549;50.042;8.968;2022-08-03T09:34:01;0.62;;;0.62;;
30998;SDS011;20549;50.042;8.968;2022-08-03T09:36:34;0.80;;;0.80;;
30998;SDS011;20549;50.042;8.968;2022-08-03T09:39:00;1.02;;;0.90;;
30998;SDS011;20549;50.042;8.968;2022-08-03T09:41:29;1.00;;;1.00;;
30998;SDS011;20549;50.042;8.968;2022-08-03T09:43:56;0.75;;;0.75;;
30998;SDS011;20549;50.042;8.968;2022-08-03T09:46:22;0.60;;;0.60;;
30998;SDS011;20549;50.042;8.968;2022-08-03T09:48:49;0.95;;;0.95;;
30998;SDS011;20549;50.042;8.968;2022-08-03T09:51:15;0.90;;;0.90;;
30998;SDS011;20549;50.042;8.968;2022-08-03T09:53:42;1.25;;;0.72;;
30998;SDS011;20549;50.042;8.968;2022-08-03T09:56:08;1.42;;;0.93;;
30998;SDS011;20549;50.042;8.968;2022-08-03T09:58:43;0.80;;;0.80;;
30998;SDS011;20549;50.042;8.968;2022-08-03T10:01:05;1.15;;;0.82;;
30998;SDS011;20549;50.042;8.968;2022-08-03T10:03:29;0.65;;;0.65;;
30998;SDS011;20549;50.042;8.968;2022-08-03T10:05:55;0.62;;;0.62;;
30998;SDS011;20549;50.042;8.968;2022-08-03T10:08:21;0.53;;;0.53;;
30998;SDS011;20549;50.042;8.968;2022-08-03T10:10:49;0.78;;;0.78;;
30998;SDS011;20549;50.042;8.968;2022-08-03T10:13:16;0.70;;;0.70;;
30998;SDS011;20549;50.042;8.968;2022-08-03T10:15:41;0.80;;;0.80;;
30998;SDS011;20549;50.042;8.968;2022-08-03T10:18:08;1.30;;;0.80;;
30998;SDS011;20549;50.042;8.968;2022-08-03T10:21:09;0.70;;;0.70;;
30998;SDS011;20549;50.042;8.968;2022-08-03T10:23:13;1.00;;;0.88;;
30998;SDS011;20549;50.042;8.968;2022-08-03T10:25:39;0.95;;;0.80;;
30998;SDS011;20549;50.042;8.968;2022-08-03T10:28:06;0.93;;;0.93;;
30998;SDS011;20549;50.042;8.968;2022-08-03T10:30:33;1.55;;;0.98;;
30998;SDS011;20549;50.042;8.968;2022-08-03T10:33:06;1.07;;;1.07;;
30998;SDS011;20549;50.042;8.968;2022-08-03T10:35:31;1.55;;;1.20;;
30998;SDS011;20549;50.042;8.968;2022-08-03T10:38:08;0.98;;;0.98;;
30998;SDS011;20549;50.042;8.968;2022-08-03T10:40:28;1.20;;;0.98;;
30998;SDS011;20549;50.042;8.968;2022-08-03T10:42:54;1.10;;;1.10;;
30998;SDS011;20549;50.042;8.968;2022-08-03T10:45:24;1.40;;;1.00;;
30998;SDS011;20549;50.042;8.968;2022-08-03T10:47:50;1.07;;;1.00;;
30998;SDS011;20549;50.042;8.968;2022-08-03T10:50:16;1.00;;;0.90;;
30998;SDS011;20549;50.042;8.968;2022-08-03T10:52:58;1.27;;;1.17;;
30998;SDS011;20549;50.042;8.968;2022-08-03T10:55:37;1.00;;;1.00;;
30998;SDS011;20549;50.042;8.968;2022-08-03T10:58:55;3.00;;;1.17;;
30998;SDS011;20549;50.042;8.968;2022-08-03T11:01:07;1.50;;;1.40;;
30998;SDS011;20549;50.042;8.968;2022-08-03T11:03:33;2.58;;;1.75;;
30998;SDS011;20549;50.042;8.968;2022-08-03T11:08:40;1.40;;;1.30;;
30998;SDS011;20549;50.042;8.968;2022-08-03T11:13:56;1.35;;;1.05;;
30998;SDS011;20549;50.042;8.968;2022-08-03T11:16:21;1.95;;;1.40;;
30998;SDS011;20549;50.042;8.968;2022-08-03T11:18:55;1.32;;;1.25;;
30998;SDS011;20549;50.042;8.968;2022-08-03T11:27:35;1.27;;;1.20;;
30998;SDS011;20549;50.042;8.968;2022-08-03T11:35:13;1.80;;;1.00;;
30998;SDS011;20549;50.042;8.968;2022-08-03T11:40:33;4.10;;;1.40;;
30998;SDS011;20549;50.042;8.968;2022-08-03T11:43:09;1.72;;;1.25;;
30998;SDS011;20549;50.042;8.968;2022-08-03T11:45:35;1.95;;;1.27;;
30998;SDS011;20549;50.042;8.968;2022-08-03T11:48:02;1.27;;;1.22;;
30998;SDS011;20549;50.042;8.968;2022-08-03T11:50:34;1.05;;;1.05;;
30998;SDS011;20549;50.042;8.968;2022-08-03T11:52:54;1.87;;;1.32;;
30998;SDS011;20549;50.042;8.968;2022-08-03T11:55:21;2.08;;;1.10;;
30998;SDS011;20549;50.042;8.968;2022-08-03T11:57:47;2.00;;;1.12;;
30998;SDS011;20549;50.042;8.968;2022-08-03T12:00:20;3.30;;;1.35;;
30998;SDS011;20549;50.042;8.968;2022-08-03T12:02:53;1.32;;;1.22;;
30998;SDS011;20549;50.042;8.968;2022-08-03T12:05:31;1.20;;;1.20;;
30998;SDS011;20549;50.042;8.968;2022-08-03T12:07:57;1.35;;;1.25;;
30998;SDS011;20549;50.042;8.968;2022-08-03T12:10:24;1.30;;;1.30;;
30998;SDS011;20549;50.042;8.968;2022-08-03T12:12:57;1.17;;;1.10;;
30998;SDS011;20549;50.042;8.968;2022-08-03T12:15:29;1.02;;;1.00;;
30998;SDS011;20549;50.042;8.968;2022-08-03T12:17:56;0.90;;;0.90;;
30998;SDS011;20549;50.042;8.968;2022-08-03T12:20:23;1.20;;;1.10;;
30998;SDS011;20549;50.042;8.968;2022-08-03T12:22:48;1.32;;;1.22;;
30998;SDS011;20549;50.042;8.968;2022-08-03T12:25:22;1.15;;;1.05;;
30998;SDS011;20549;50.042;8.968;2022-08-03T12:27:48;1.00;;;1.00;;
30998;SDS011;20549;50.042;8.968;2022-08-03T12:30:14;1.10;;;1.10;;
30998;SDS011;20549;50.042;8.968;2022-08-03T12:32:41;1.37;;;1.27;;
30998;SDS011;20549;50.042;8.968;2022-08-03T12:35:07;1.20;;;1.20;;
30998;SDS011;20549;50.042;8.968;2022-08-03T12:37:34;1.20;;;1.20;;
30998;SDS011;20549;50.042;8.968;2022-08-03T12:40:01;1.20;;;1.20;;
30998;SDS011;20549;50.042;8.968;2022-08-03T12:42:31;1.10;;;1.10;;
30998;SDS011;20549;50.042;8.968;2022-08-03T12:44:59;1.45;;;1.15;;
30998;SDS011;20549;50.042;8.968;2022-08-03T12:47:26;1.00;;;1.00;;
30998;SDS011;20549;50.042;8.968;2022-08-03T12:49:52;0.90;;;0.90;;
30998;SDS011;20549;50.042;8.968;2022-08-03T12:52:20;1.32;;;1.20;;
30998;SDS011;20549;50.042;8.968;2022-08-03T12:54:59;1.07;;;1.07;;
30998;SDS011;20549;50.042;8.968;2022-08-03T12:57:21;4.05;;;1.72;;
30998;SDS011;20549;50.042;8.968;2022-08-03T12:59:48;1.30;;;1.20;;
30998;SDS011;20549;50.042;8.968;2022-08-03T13:02:15;1.30;;;1.20;;
30998;SDS011;20549;50.042;8.968;2022-08-03T13:04:41;1.42;;;1.32;;
30998;SDS011;20549;50.042;8.968;2022-08-03T13:07:08;1.17;;;1.17;;
30998;SDS011;20549;50.042;8.968;2022-08-03T13:12:11;1.85;;;1.30;;
30998;SDS011;20549;50.042;8.968;2022-08-03T13:14:39;1.92;;;1.07;;
30998;SDS011;20549;50.042;8.968;2022-08-03T13:17:05;0.98;;;0.98;;
30998;SDS011;20549;50.042;8.968;2022-08-03T13:19:32;0.93;;;0.93;;
30998;SDS011;20549;50.042;8.968;2022-08-03T13:21:58;1.40;;;1.30;;
30998;SDS011;20549;50.042;8.968;2022-08-03T13:24:25;1.10;;;1.10;;
30998;SDS011;20549;50.042;8.968;2022-08-03T13:26:52;1.22;;;1.20;;
30998;SDS011;20549;50.042;8.968;2022-08-03T13:29:18;1.10;;;1.10;;
30998;SDS011;20549;50.042;8.968;2022-08-03T13:31:45;3.05;;;1.10;;
30998;SDS011;20549;50.042;8.968;2022-08-03T13:34:11;1.20;;;1.20;;
30998;SDS011;20549;50.042;8.968;2022-08-03T13:36:38;1.05;;;1.00;;
30998;SDS011;20549;50.042;8.968;2022-08-03T13:39:04;1.22;;;1.10;;
30998;SDS011;20549;50.042;8.968;2022-08-03T13:41:31;1.50;;;1.32;;
30998;SDS011;20549;50.042;8.968;2022-08-03T13:43:58;1.35;;;1.25;;
30998;SDS011;20549;50.042;8.968;2022-08-03T13:46:24;1.17;;;1.07;;
30998;SDS011;20549;50.042;8.968;2022-08-03T13:48:51;1.15;;;1.15;;
30998;SDS011;20549;50.042;8.968;2022-08-03T13:51:17;1.17;;;1.02;;
30998;SDS011;20549;50.042;8.968;2022-08-03T13:53:44;1.40;;;1.30;;
30998;SDS011;20549;50.042;8.968;2022-08-03T13:56:11;0.98;;;0.98;;
30998;SDS011;20549;50.042;8.968;2022-08-03T13:58:37;1.32;;;1.22;;
30998;SDS011;20549;50.042;8.968;2022-08-03T14:01:04;1.62;;;1.10;;
30998;SDS011;20549;50.042;8.968;2022-08-03T14:03:30;1.35;;;1.27;;
30998;SDS011;20549;50.042;8.968;2022-08-03T14:05:57;1.10;;;1.10;;
30998;SDS011;20549;50.042;8.968;2022-08-03T14:08:24;1.37;;;1.27;;
30998;SDS011;20549;50.042;8.968;2022-08-03T14:10:50;0.90;;;0.90;;
30998;SDS011;20549;50.042;8.968;2022-08-03T14:13:17;1.87;;;1.30;;
30998;SDS011;20549;50.042;8.968;2022-08-03T14:15:44;0.95;;;0.95;;
30998;SDS011;20549;50.042;8.968;2022-08-03T14:18:10;1.60;;;1.00;;
30998;SDS011;20549;50.042;8.968;2022-08-03T14:20:37;1.32;;;1.22;;
30998;SDS011;20549;50.042;8.968;2022-08-03T14:23:03;1.50;;;1.40;;
30998;SDS011;20549;50.042;8.968;2022-08-03T14:25:30;0.90;;;0.90;;
30998;SDS011;20549;50.042;8.968;2022-08-03T14:27:56;3.85;;;1.30;;
30998;SDS011;20549;50.042;8.968;2022-08-03T14:30:23;1.12;;;1.10;;
30998;SDS011;20549;50.042;8.968;2022-08-03T14:32:49;2.35;;;1.50;;
30998;SDS011;20549;50.042;8.968;2022-08-03T14:35:16;1.50;;;1.40;;
30998;SDS011;20549;50.042;8.968;2022-08-03T14:37:43;1.20;;;1.10;;
30998;SDS011;20549;50.042;8.968;2022-08-03T14:40:09;1.20;;;1.00;;
30998;SDS011;20549;50.042;8.968;2022-08-03T14:42:36;1.67;;;1.30;;
30998;SDS011;20549;50.042;8.968;2022-08-03T14:45:02;1.07;;;1.07;;
30998;SDS011;20549;50.042;8.968;2022-08-03T14:47:29;1.02;;;1.02;;
30998;SDS011;20549;50.042;8.968;2022-08-03T14:49:56;1.62;;;1.52;;
30998;SDS011;20549;50.042;8.968;2022-08-03T14:52:22;1.00;;;1.00;;
30998;SDS011;20549;50.042;8.968;2022-08-03T14:54:49;1.30;;;1.20;;
30998;SDS011;20549;50.042;8.968;2022-08-03T14:57:15;6.03;;;1.40;;
30998;SDS011;20549;50.042;8.968;2022-08-03T14:59:42;1.67;;;1.20;;
30998;SDS011;20549;50.042;8.968;2022-08-03T15:02:09;1.70;;;1.07;;
30998;SDS011;20549;50.042;8.968;2022-08-03T15:04:35;1.10;;;1.10;;
30998;SDS011;20549;50.042;8.968;2022-08-03T15:07:02;2.02;;;1.20;;
30998;SDS011;20549;50.042;8.968;2022-08-03T15:09:28;1.20;;;1.20;;
30998;SDS011;20549;50.042;8.968;2022-08-03T15:11:55;1.50;;;1.40;;
30998;SDS011;20549;50.042;8.968;2022-08-03T15:14:21;1.50;;;1.40;;
30998;SDS011;20549;50.042;8.968;2022-08-03T15:16:48;2.08;;;1.20;;
30998;SDS011;20549;50.042;8.968;2022-08-03T15:19:15;2.47;;;1.10;;
30998;SDS011;20549;50.042;8.968;2022-08-03T15:21:41;1.32;;;1.22;;
30998;SDS011;20549;50.042;8.968;2022-08-03T15:24:08;1.45;;;1.32;;